< < Back
Terminal Aerodrome Forecast


Current Version              Previous Versions:   1  2  3  4  5  6  7  8  9  

Terminal Aerodrome Forecast

720
FTUS44 KMOB 181234 AAA
TAFPNS
TAF AMD
KPNS 181234Z 1813/1912 01005KT 1 1/2SM -RA BR OVC002
     FM181500 16009KT P6SM -RA OVC010
     FM181900 18010KT P6SM OVC015
     FM190000 18011G20KT P6SM VCTS OVC015CB PROB30 1900/1906 P6SM
      -TSRA BKN012CB OVC015=

Latest METAR

393
SAUS70 KWBC 181500 RRP
MTRPNS
METAR KPNS 181453Z COR 00000KT 3SM BR OVC003 21/20 A2998 RMK AO2 RAE53
SLP154 P0001 60003 T02060200 53016


USA.gov is the U.S. government's official web portal to all federal, state and local government web resources and services.